Oldham, SD (57051)

22:12 CDT le 31 octobre 2014 (GMT -0500)
Arlington, SD | Change Station
CLOSE
Current Station
Stations météorologiques personnelles
Location: Arlington, SD
Altitude: 1808 ft
Stations météo à proximité

Alt. 1808 ft 44.38 °N, 97.08 °W | Updated 6 seconds ago

Ciel dégagé
Ciel dégagé
26.4 ° F
Paraît 21 ° F
N
5.0
Vent Variable Vent de SSE
Gusts 5.0 mph

Aujourd'hui
Haut(e) -- | Bas -- ° F
--% Risque de précip.
Hier
Haut(e) -- | Bas -- ° F
Precip. -- pouce
8:04 AM 6:20 PM
Premier quartier, 61% visible
Pression 30.39 pouce
Visibilité 10.0 Miles terrestres
Nuages Ciel dégagé
Refroidissement éolien 21 ° F
Point de rosée 20 ° F
Humidité 76%
Précipitations 0.00 pouce
Profondeur de la couche neigeuse Non disponible.
UV 0.0 sur 12
Pollen .10 sur 12
Qualité de l'air Non disponible.
Flu Activity Non disponible.
METAR KMDS 010235Z AUTO 16006KT 10SM CLR M02/M08 A3039 RMK AO2

More Conditions Fewer Conditions

Pression 30.39 pouce
Visibilité 10.0 Miles terrestres
Nuages Ciel dégagé
Refroidissement éolien 21 ° F
Point de rosée 20 ° F
Humidité 76%
Précipitations 0.00 pouce
Profondeur de la couche neigeuse Non disponible.
UV 0.0 sur 12
Pollen .10 sur 12
Qualité de l'air Non disponible.
Flu Activity Non disponible.
METAR KMDS 010235Z AUTO 16006KT 10SM CLR M02/M08 A3039 RMK AO2

More Conditions Fewer Conditions

10-Day Weather Forecast

Almanac

Astronomie

Oct. 31, 2014 Lever Coucher
Temps réel
Crépuscule civil
Crépuscule nautique
Crépuscule astronomique
Lune
Durée de lumière visible
Longueur du jour
Tomorrow will be .
, % of the Moon is Illuminated

Extrêmes aujourd'hui

State Highs State Lows

Community

WunderPhotos

Upload Photos

1,766,837 Photos téléchargées !

WunderBlogs® & News

Nearby

Qualité de l'air

  Qualité de l'air Indice de la qualité de l'air Polluant
Not available.

Épaisseur de neige

Station Depth Altitude

Activité sismique

Ville Distance Mag. Time & Date
Minimum magnitude displayed is 2.5.

Températures des eaux côtières

Lieu Température

Stations météo à proximité